sensor_id;sensor_type;location;lat;lon;timestamp;P1;durP1;ratioP1;P2;durP2;ratioP2
33810;SDS011;20119;48.334;16.206;2022-09-01T00:00:07;6.72;;;6.10;;
33810;SDS011;20119;48.334;16.206;2022-09-01T00:02:37;7.57;;;6.18;;
33810;SDS011;20119;48.334;16.206;2022-09-01T00:05:05;6.97;;;6.25;;
33810;SDS011;20119;48.334;16.206;2022-09-01T00:07:33;7.28;;;6.55;;
33810;SDS011;20119;48.334;16.206;2022-09-01T00:12:39;9.38;;;7.18;;
33810;SDS011;20119;48.334;16.206;2022-09-01T00:15:08;8.43;;;7.15;;
33810;SDS011;20119;48.334;16.206;2022-09-01T00:20:12;7.57;;;6.75;;
33810;SDS011;20119;48.334;16.206;2022-09-01T00:25:14;8.15;;;7.45;;
33810;SDS011;20119;48.334;16.206;2022-09-01T00:41:37;9.63;;;8.75;;
33810;SDS011;20119;48.334;16.206;2022-09-01T00:44:08;9.65;;;8.32;;
33810;SDS011;20119;48.334;16.206;2022-09-01T00:46:38;9.65;;;8.85;;
33810;SDS011;20119;48.334;16.206;2022-09-01T00:51:37;10.25;;;9.25;;
33810;SDS011;20119;48.334;16.206;2022-09-01T00:54:11;10.25;;;9.20;;
33810;SDS011;20119;48.334;16.206;2022-09-01T00:59:22;10.10;;;9.10;;
33810;SDS011;20119;48.334;16.206;2022-09-01T01:01:49;10.75;;;9.85;;
33810;SDS011;20119;48.334;16.206;2022-09-01T01:06:53;10.15;;;9.27;;
33810;SDS011;20119;48.334;16.206;2022-09-01T01:09:26;11.35;;;10.35;;
33810;SDS011;20119;48.334;16.206;2022-09-01T01:14:44;12.23;;;10.80;;
33810;SDS011;20119;48.334;16.206;2022-09-01T01:22:25;12.15;;;10.95;;
33810;SDS011;20119;48.334;16.206;2022-09-01T01:25:29;11.25;;;10.20;;
33810;SDS011;20119;48.334;16.206;2022-09-01T01:28:10;14.20;;;11.18;;
33810;SDS011;20119;48.334;16.206;2022-09-01T01:30:43;12.35;;;11.18;;
33810;SDS011;20119;48.334;16.206;2022-09-01T01:33:15;10.90;;;9.88;;
33810;SDS011;20119;48.334;16.206;2022-09-01T01:35:43;12.85;;;11.52;;
33810;SDS011;20119;48.334;16.206;2022-09-01T01:38:11;12.43;;;11.23;;
33810;SDS011;20119;48.334;16.206;2022-09-01T01:40:41;11.98;;;10.77;;
33810;SDS011;20119;48.334;16.206;2022-09-01T01:43:20;11.80;;;10.60;;
33810;SDS011;20119;48.334;16.206;2022-09-01T01:45:47;13.07;;;11.77;;
33810;SDS011;20119;48.334;16.206;2022-09-01T01:48:21;13.63;;;12.35;;
33810;SDS011;20119;48.334;16.206;2022-09-01T01:50:59;13.23;;;11.88;;
33810;SDS011;20119;48.334;16.206;2022-09-01T01:53:29;11.98;;;10.65;;
33810;SDS011;20119;48.334;16.206;2022-09-01T02:01:03;12.38;;;11.38;;
33810;SDS011;20119;48.334;16.206;2022-09-01T02:06:09;13.60;;;12.40;;
33810;SDS011;20119;48.334;16.206;2022-09-01T02:34:40;11.00;;;10.00;;
33810;SDS011;20119;48.334;16.206;2022-09-01T02:37:07;10.55;;;9.45;;
33810;SDS011;20119;48.334;16.206;2022-09-01T02:39:47;12.93;;;10.82;;
33810;SDS011;20119;48.334;16.206;2022-09-01T03:00:25;13.23;;;11.32;;
33810;SDS011;20119;48.334;16.206;2022-09-01T03:10:49;12.00;;;10.68;;
33810;SDS011;20119;48.334;16.206;2022-09-01T03:13:19;13.15;;;11.00;;
33810;SDS011;20119;48.334;16.206;2022-09-01T03:15:56;12.30;;;11.13;;
33810;SDS011;20119;48.334;16.206;2022-09-01T03:18:24;12.40;;;11.07;;
33810;SDS011;20119;48.334;16.206;2022-09-01T03:20:51;12.90;;;11.57;;
33810;SDS011;20119;48.334;16.206;2022-09-01T03:23:18;12.38;;;11.27;;
33810;SDS011;20119;48.334;16.206;2022-09-01T03:25:46;12.55;;;11.25;;
33810;SDS011;20119;48.334;16.206;2022-09-01T03:28:15;12.30;;;11.20;;
33810;SDS011;20119;48.334;16.206;2022-09-01T03:30:46;11.75;;;10.55;;
33810;SDS011;20119;48.334;16.206;2022-09-01T03:33:19;11.50;;;10.30;;
33810;SDS011;20119;48.334;16.206;2022-09-01T03:35:49;13.07;;;11.63;;
33810;SDS011;20119;48.334;16.206;2022-09-01T03:38:17;11.05;;;9.95;;
33810;SDS011;20119;48.334;16.206;2022-09-01T03:40:48;10.98;;;9.98;;
33810;SDS011;20119;48.334;16.206;2022-09-01T03:43:18;11.70;;;10.65;;
33810;SDS011;20119;48.334;16.206;2022-09-01T03:45:49;10.50;;;9.43;;
33810;SDS011;20119;48.334;16.206;2022-09-01T03:48:19;11.85;;;10.85;;
33810;SDS011;20119;48.334;16.206;2022-09-01T03:50:50;11.85;;;10.02;;
33810;SDS011;20119;48.334;16.206;2022-09-01T03:53:18;10.23;;;9.25;;
33810;SDS011;20119;48.334;16.206;2022-09-01T03:55:48;10.52;;;9.52;;
33810;SDS011;20119;48.334;16.206;2022-09-01T03:58:18;12.05;;;9.60;;
33810;SDS011;20119;48.334;16.206;2022-09-01T04:00:46;10.98;;;8.68;;
33810;SDS011;20119;48.334;16.206;2022-09-01T04:03:21;10.25;;;9.32;;
33810;SDS011;20119;48.334;16.206;2022-09-01T04:05:51;11.45;;;9.93;;
33810;SDS011;20119;48.334;16.206;2022-09-01T04:08:20;10.32;;;9.43;;
33810;SDS011;20119;48.334;16.206;2022-09-01T04:10:53;11.95;;;9.50;;
33810;SDS011;20119;48.334;16.206;2022-09-01T04:13:23;12.93;;;9.57;;
33810;SDS011;20119;48.334;16.206;2022-09-01T04:15:52;11.60;;;9.85;;
33810;SDS011;20119;48.334;16.206;2022-09-01T04:18:22;11.38;;;10.10;;
33810;SDS011;20119;48.334;16.206;2022-09-01T04:20:51;10.30;;;9.40;;
33810;SDS011;20119;48.334;16.206;2022-09-01T04:23:21;11.70;;;9.25;;
33810;SDS011;20119;48.334;16.206;2022-09-01T04:28:20;10.15;;;9.23;;
33810;SDS011;20119;48.334;16.206;2022-09-01T04:30:51;10.40;;;9.13;;
33810;SDS011;20119;48.334;16.206;2022-09-01T04:33:24;10.95;;;9.90;;
33810;SDS011;20119;48.334;16.206;2022-09-01T04:35:59;11.85;;;9.73;;
33810;SDS011;20119;48.334;16.206;2022-09-01T04:38:26;10.63;;;9.52;;
33810;SDS011;20119;48.334;16.206;2022-09-01T04:40:54;9.77;;;8.88;;
33810;SDS011;20119;48.334;16.206;2022-09-01T04:43:22;9.05;;;8.25;;
33810;SDS011;20119;48.334;16.206;2022-09-01T04:45:50;10.02;;;9.02;;
33810;SDS011;20119;48.334;16.206;2022-09-01T04:48:20;10.18;;;8.27;;
33810;SDS011;20119;48.334;16.206;2022-09-01T04:50:49;9.88;;;8.20;;
33810;SDS011;20119;48.334;16.206;2022-09-01T04:53:17;8.60;;;7.70;;
33810;SDS011;20119;48.334;16.206;2022-09-01T04:55:45;9.63;;;7.68;;
33810;SDS011;20119;48.334;16.206;2022-09-01T04:58:16;11.40;;;6.97;;
33810;SDS011;20119;48.334;16.206;2022-09-01T05:00:45;10.40;;;6.75;;
33810;SDS011;20119;48.334;16.206;2022-09-01T05:03:16;6.95;;;6.35;;
33810;SDS011;20119;48.334;16.206;2022-09-01T05:05:45;6.28;;;5.72;;
33810;SDS011;20119;48.334;16.206;2022-09-01T05:08:15;6.60;;;5.15;;
33810;SDS011;20119;48.334;16.206;2022-09-01T05:18:38;5.53;;;4.18;;
33810;SDS011;20119;48.334;16.206;2022-09-01T05:21:07;7.07;;;4.30;;
33810;SDS011;20119;48.334;16.206;2022-09-01T05:23:37;7.82;;;4.25;;
33810;SDS011;20119;48.334;16.206;2022-09-01T05:26:05;5.57;;;3.97;;
33810;SDS011;20119;48.334;16.206;2022-09-01T05:28:41;5.07;;;4.07;;
33810;SDS011;20119;48.334;16.206;2022-09-01T05:31:08;6.53;;;4.20;;
33810;SDS011;20119;48.334;16.206;2022-09-01T05:33:36;5.10;;;3.97;;
33810;SDS011;20119;48.334;16.206;2022-09-01T05:36:10;4.65;;;3.53;;
33810;SDS011;20119;48.334;16.206;2022-09-01T05:38:39;6.95;;;3.45;;
33810;SDS011;20119;48.334;16.206;2022-09-01T05:41:07;4.88;;;3.03;;
33810;SDS011;20119;48.334;16.206;2022-09-01T05:43:39;6.32;;;2.85;;
33810;SDS011;20119;48.334;16.206;2022-09-01T05:46:17;3.88;;;2.60;;
33810;SDS011;20119;48.334;16.206;2022-09-01T05:48:47;3.45;;;2.70;;
33810;SDS011;20119;48.334;16.206;2022-09-01T05:51:17;4.35;;;2.75;;
33810;SDS011;20119;48.334;16.206;2022-09-01T05:53:48;4.82;;;2.40;;
33810;SDS011;20119;48.334;16.206;2022-09-01T05:56:16;2.20;;;2.00;;
33810;SDS011;20119;48.334;16.206;2022-09-01T05:58:44;2.97;;;2.05;;
33810;SDS011;20119;48.334;16.206;2022-09-01T06:01:14;3.80;;;2.28;;
33810;SDS011;20119;48.334;16.206;2022-09-01T06:03:46;3.53;;;2.10;;
33810;SDS011;20119;48.334;16.206;2022-09-01T06:06:19;2.97;;;1.60;;
33810;SDS011;20119;48.334;16.206;2022-09-01T06:08:48;2.80;;;1.67;;
33810;SDS011;20119;48.334;16.206;2022-09-01T06:11:16;3.72;;;1.80;;
33810;SDS011;20119;48.334;16.206;2022-09-01T06:13:44;2.65;;;1.70;;
33810;SDS011;20119;48.334;16.206;2022-09-01T06:16:12;3.95;;;1.73;;
33810;SDS011;20119;48.334;16.206;2022-09-01T06:18:41;2.65;;;1.52;;
33810;SDS011;20119;48.334;16.206;2022-09-01T06:21:09;3.30;;;1.50;;
33810;SDS011;20119;48.334;16.206;2022-09-01T06:23:39;2.05;;;1.48;;
33810;SDS011;20119;48.334;16.206;2022-09-01T06:26:16;3.03;;;1.63;;
33810;SDS011;20119;48.334;16.206;2022-09-01T06:28:44;3.22;;;1.50;;
33810;SDS011;20119;48.334;16.206;2022-09-01T06:31:12;4.32;;;1.70;;
33810;SDS011;20119;48.334;16.206;2022-09-01T06:33:39;3.72;;;1.75;;
33810;SDS011;20119;48.334;16.206;2022-09-01T06:36:09;2.05;;;1.58;;
33810;SDS011;20119;48.334;16.206;2022-09-01T06:38:37;5.03;;;1.50;;
33810;SDS011;20119;48.334;16.206;2022-09-01T06:43:42;3.00;;;1.60;;
33810;SDS011;20119;48.334;16.206;2022-09-01T06:46:09;2.55;;;1.75;;
33810;SDS011;20119;48.334;16.206;2022-09-01T06:48:37;3.38;;;1.50;;
33810;SDS011;20119;48.334;16.206;2022-09-01T06:51:06;3.72;;;1.50;;
33810;SDS011;20119;48.334;16.206;2022-09-01T06:53:33;3.35;;;1.67;;
33810;SDS011;20119;48.334;16.206;2022-09-01T06:56:01;4.18;;;1.70;;
33810;SDS011;20119;48.334;16.206;2022-09-01T06:58:28;4.00;;;1.50;;
33810;SDS011;20119;48.334;16.206;2022-09-01T07:00:58;2.42;;;1.73;;
33810;SDS011;20119;48.334;16.206;2022-09-01T07:03:30;2.03;;;1.60;;
33810;SDS011;20119;48.334;16.206;2022-09-01T07:05:58;6.43;;;1.58;;
33810;SDS011;20119;48.334;16.206;2022-09-01T07:08:31;4.65;;;1.55;;
33810;SDS011;20119;48.334;16.206;2022-09-01T07:11:04;2.40;;;1.40;;
33810;SDS011;20119;48.334;16.206;2022-09-01T07:13:32;7.38;;;1.83;;
33810;SDS011;20119;48.334;16.206;2022-09-01T07:16:02;3.85;;;1.40;;
33810;SDS011;20119;48.334;16.206;2022-09-01T07:23:41;3.45;;;1.38;;
33810;SDS011;20119;48.334;16.206;2022-09-01T07:26:08;4.28;;;1.40;;
33810;SDS011;20119;48.334;16.206;2022-09-01T07:28:42;6.38;;;1.50;;
33810;SDS011;20119;48.334;16.206;2022-09-01T07:39:19;2.38;;;1.40;;
33810;SDS011;20119;48.334;16.206;2022-09-01T07:41:46;1.83;;;1.20;;
33810;SDS011;20119;48.334;16.206;2022-09-01T07:44:14;2.35;;;1.30;;
33810;SDS011;20119;48.334;16.206;2022-09-01T07:46:41;3.00;;;1.27;;
33810;SDS011;20119;48.334;16.206;2022-09-01T07:49:08;1.80;;;1.30;;
33810;SDS011;20119;48.334;16.206;2022-09-01T07:51:35;3.67;;;1.40;;
33810;SDS011;20119;48.334;16.206;2022-09-01T07:54:03;2.53;;;1.30;;
33810;SDS011;20119;48.334;16.206;2022-09-01T07:56:33;2.20;;;1.30;;
33810;SDS011;20119;48.334;16.206;2022-09-01T07:59:01;3.38;;;1.48;;
33810;SDS011;20119;48.334;16.206;2022-09-01T08:01:29;2.63;;;1.30;;
33810;SDS011;20119;48.334;16.206;2022-09-01T08:03:58;2.33;;;1.33;;
33810;SDS011;20119;48.334;16.206;2022-09-01T08:06:26;3.58;;;1.35;;
33810;SDS011;20119;48.334;16.206;2022-09-01T08:08:55;1.70;;;1.10;;
33810;SDS011;20119;48.334;16.206;2022-09-01T08:11:24;3.17;;;1.13;;
33810;SDS011;20119;48.334;16.206;2022-09-01T08:13:54;3.40;;;1.35;;
33810;SDS011;20119;48.334;16.206;2022-09-01T08:16:26;2.08;;;1.17;;
33810;SDS011;20119;48.334;16.206;2022-09-01T08:18:55;1.85;;;1.23;;
33810;SDS011;20119;48.334;16.206;2022-09-01T08:21:24;2.17;;;1.20;;
33810;SDS011;20119;48.334;16.206;2022-09-01T08:29:04;2.15;;;1.20;;
33810;SDS011;20119;48.334;16.206;2022-09-01T08:31:31;3.67;;;1.30;;
33810;SDS011;20119;48.334;16.206;2022-09-01T08:34:00;1.83;;;1.30;;
33810;SDS011;20119;48.334;16.206;2022-09-01T08:36:29;3.27;;;1.10;;
33810;SDS011;20119;48.334;16.206;2022-09-01T08:38:57;2.42;;;1.10;;
33810;SDS011;20119;48.334;16.206;2022-09-01T08:41:28;2.88;;;1.23;;
33810;SDS011;20119;48.334;16.206;2022-09-01T08:44:10;4.88;;;1.25;;
33810;SDS011;20119;48.334;16.206;2022-09-01T08:49:21;2.92;;;1.00;;
33810;SDS011;20119;48.334;16.206;2022-09-01T08:54:21;1.90;;;1.13;;
33810;SDS011;20119;48.334;16.206;2022-09-01T08:56:52;3.65;;;1.23;;
33810;SDS011;20119;48.334;16.206;2022-09-01T08:59:26;2.22;;;1.20;;
33810;SDS011;20119;48.334;16.206;2022-09-01T09:12:21;2.45;;;1.27;;
33810;SDS011;20119;48.334;16.206;2022-09-01T09:15:02;2.63;;;1.25;;
33810;SDS011;20119;48.334;16.206;2022-09-01T09:17:44;2.25;;;1.30;;
33810;SDS011;20119;48.334;16.206;2022-09-01T09:22:53;2.35;;;1.23;;
33810;SDS011;20119;48.334;16.206;2022-09-01T09:25:22;4.77;;;1.30;;
33810;SDS011;20119;48.334;16.206;2022-09-01T09:30:27;3.38;;;1.40;;
33810;SDS011;20119;48.334;16.206;2022-09-01T09:38:18;3.83;;;1.30;;
33810;SDS011;20119;48.334;16.206;2022-09-01T09:46:21;3.80;;;1.50;;
33810;SDS011;20119;48.334;16.206;2022-09-01T09:49:05;3.55;;;1.30;;
33810;SDS011;20119;48.334;16.206;2022-09-01T09:51:36;3.15;;;1.40;;
33810;SDS011;20119;48.334;16.206;2022-09-01T09:54:11;5.57;;;1.38;;
33810;SDS011;20119;48.334;16.206;2022-09-01T09:56:41;3.20;;;1.30;;
33810;SDS011;20119;48.334;16.206;2022-09-01T09:59:17;2.85;;;1.33;;
33810;SDS011;20119;48.334;16.206;2022-09-01T10:01:55;2.58;;;1.30;;
33810;SDS011;20119;48.334;16.206;2022-09-01T10:04:34;1.73;;;1.40;;
33810;SDS011;20119;48.334;16.206;2022-09-01T10:12:13;4.40;;;1.40;;
33810;SDS011;20119;48.334;16.206;2022-09-01T10:19:54;2.25;;;1.27;;
33810;SDS011;20119;48.334;16.206;2022-09-01T10:25:03;2.67;;;1.50;;
33810;SDS011;20119;48.334;16.206;2022-09-01T10:27:32;2.00;;;1.40;;
33810;SDS011;20119;48.334;16.206;2022-09-01T10:32:38;2.72;;;1.35;;
33810;SDS011;20119;48.334;16.206;2022-09-01T10:35:09;2.30;;;1.52;;
33810;SDS011;20119;48.334;16.206;2022-09-01T10:37:44;2.85;;;1.17;;
33810;SDS011;20119;48.334;16.206;2022-09-01T10:40:17;2.50;;;1.20;;
33810;SDS011;20119;48.334;16.206;2022-09-01T10:43:21;3.72;;;1.30;;
33810;SDS011;20119;48.334;16.206;2022-09-01T10:45:52;4.07;;;1.30;;
33810;SDS011;20119;48.334;16.206;2022-09-01T10:48:27;3.38;;;1.30;;
33810;SDS011;20119;48.334;16.206;2022-09-01T10:56:09;2.30;;;0.98;;
33810;SDS011;20119;48.334;16.206;2022-09-01T11:03:54;3.08;;;1.00;;
33810;SDS011;20119;48.334;16.206;2022-09-01T11:06:44;3.20;;;0.98;;
33810;SDS011;20119;48.334;16.206;2022-09-01T11:09:31;1.88;;;1.00;;
33810;SDS011;20119;48.334;16.206;2022-09-01T11:12:21;2.38;;;1.20;;
33810;SDS011;20119;48.334;16.206;2022-09-01T11:14:59;3.08;;;1.10;;
33810;SDS011;20119;48.334;16.206;2022-09-01T11:22:43;1.10;;;0.80;;
33810;SDS011;20119;48.334;16.206;2022-09-01T11:31:22;2.63;;;0.98;;
33810;SDS011;20119;48.334;16.206;2022-09-01T11:39:14;2.00;;;1.27;;
33810;SDS011;20119;48.334;16.206;2022-09-01T11:44:27;2.67;;;1.20;;
33810;SDS011;20119;48.334;16.206;2022-09-01T11:47:03;1.65;;;1.05;;
33810;SDS011;20119;48.334;16.206;2022-09-01T12:02:31;1.40;;;1.10;;
33810;SDS011;20119;48.334;16.206;2022-09-01T12:15:23;3.58;;;1.17;;
33810;SDS011;20119;48.334;16.206;2022-09-01T12:25:49;1.95;;;1.10;;
33810;SDS011;20119;48.334;16.206;2022-09-01T12:41:24;2.13;;;1.10;;
33810;SDS011;20119;48.334;16.206;2022-09-01T12:46:53;3.58;;;1.00;;
33810;SDS011;20119;48.334;16.206;2022-09-01T13:07:30;0.88;;;0.80;;
33810;SDS011;20119;48.334;16.206;2022-09-01T13:10:17;1.92;;;0.95;;
33810;SDS011;20119;48.334;16.206;2022-09-01T13:12:45;0.95;;;0.82;;
33810;SDS011;20119;48.334;16.206;2022-09-01T13:15:13;2.70;;;0.90;;
33810;SDS011;20119;48.334;16.206;2022-09-01T13:17:40;4.72;;;0.80;;
33810;SDS011;20119;48.334;16.206;2022-09-01T13:20:08;2.20;;;0.80;;
33810;SDS011;20119;48.334;16.206;2022-09-01T13:22:50;2.95;;;0.80;;
33810;SDS011;20119;48.334;16.206;2022-09-01T13:30:29;1.40;;;0.70;;
33810;SDS011;20119;48.334;16.206;2022-09-01T13:32:56;1.70;;;0.82;;
33810;SDS011;20119;48.334;16.206;2022-09-01T13:35:23;3.20;;;0.80;;
33810;SDS011;20119;48.334;16.206;2022-09-01T13:37:53;0.70;;;0.60;;
33810;SDS011;20119;48.334;16.206;2022-09-01T13:40:21;2.78;;;0.80;;
33810;SDS011;20119;48.334;16.206;2022-09-01T13:42:49;1.48;;;0.60;;
33810;SDS011;20119;48.334;16.206;2022-09-01T13:45:19;1.90;;;0.70;;
33810;SDS011;20119;48.334;16.206;2022-09-01T13:47:51;3.03;;;0.82;;
33810;SDS011;20119;48.334;16.206;2022-09-01T13:50:20;1.83;;;0.70;;
33810;SDS011;20119;48.334;16.206;2022-09-01T13:52:49;3.33;;;0.60;;
33810;SDS011;20119;48.334;16.206;2022-09-01T13:58:05;1.02;;;0.60;;
33810;SDS011;20119;48.334;16.206;2022-09-01T14:00:34;1.70;;;0.60;;
33810;SDS011;20119;48.334;16.206;2022-09-01T14:03:04;2.58;;;0.70;;
33810;SDS011;20119;48.334;16.206;2022-09-01T14:05:34;1.35;;;0.50;;
33810;SDS011;20119;48.334;16.206;2022-09-01T14:08:04;2.95;;;0.60;;
33810;SDS011;20119;48.334;16.206;2022-09-01T14:10:32;1.55;;;0.57;;
33810;SDS011;20119;48.334;16.206;2022-09-01T14:13:07;1.98;;;0.60;;
33810;SDS011;20119;48.334;16.206;2022-09-01T14:15:35;2.05;;;0.60;;
33810;SDS011;20119;48.334;16.206;2022-09-01T14:18:03;2.25;;;0.65;;
33810;SDS011;20119;48.334;16.206;2022-09-01T14:20:32;0.95;;;0.60;;
33810;SDS011;20119;48.334;16.206;2022-09-01T14:23:02;1.17;;;0.57;;
33810;SDS011;20119;48.334;16.206;2022-09-01T14:25:30;0.50;;;0.50;;
33810;SDS011;20119;48.334;16.206;2022-09-01T14:27:58;2.03;;;0.68;;
33810;SDS011;20119;48.334;16.206;2022-09-01T14:30:28;3.22;;;0.60;;
33810;SDS011;20119;48.334;16.206;2022-09-01T14:35:23;2.42;;;0.57;;
33810;SDS011;20119;48.334;16.206;2022-09-01T14:37:51;1.08;;;0.60;;
33810;SDS011;20119;48.334;16.206;2022-09-01T14:40:20;2.05;;;0.73;;
33810;SDS011;20119;48.334;16.206;2022-09-01T14:45:18;1.63;;;0.65;;
33810;SDS011;20119;48.334;16.206;2022-09-01T14:47:49;2.08;;;0.60;;
33810;SDS011;20119;48.334;16.206;2022-09-01T14:50:17;2.22;;;0.82;;
33810;SDS011;20119;48.334;16.206;2022-09-01T14:52:46;0.95;;;0.60;;
33810;SDS011;20119;48.334;16.206;2022-09-01T14:55:15;1.38;;;0.63;;
33810;SDS011;20119;48.334;16.206;2022-09-01T14:57:42;0.70;;;0.60;;
33810;SDS011;20119;48.334;16.206;2022-09-01T15:00:10;2.17;;;0.70;;
33810;SDS011;20119;48.334;16.206;2022-09-01T15:02:38;0.80;;;0.60;;
33810;SDS011;20119;48.334;16.206;2022-09-01T15:05:09;0.85;;;0.65;;
33810;SDS011;20119;48.334;16.206;2022-09-01T15:10:05;2.97;;;1.00;;
33810;SDS011;20119;48.334;16.206;2022-09-01T15:12:33;1.25;;;0.80;;
33810;SDS011;20119;48.334;16.206;2022-09-01T15:15:04;2.38;;;0.73;;
33810;SDS011;20119;48.334;16.206;2022-09-01T15:17:33;1.10;;;0.70;;
33810;SDS011;20119;48.334;16.206;2022-09-01T15:20:01;4.55;;;0.60;;
33810;SDS011;20119;48.334;16.206;2022-09-01T15:22:45;3.03;;;0.60;;
33810;SDS011;20119;48.334;16.206;2022-09-01T15:25:13;0.80;;;0.70;;
33810;SDS011;20119;48.334;16.206;2022-09-01T15:27:42;1.20;;;0.50;;
33810;SDS011;20119;48.334;16.206;2022-09-01T15:30:10;2.58;;;0.60;;
33810;SDS011;20119;48.334;16.206;2022-09-01T15:32:42;2.25;;;0.55;;
33810;SDS011;20119;48.334;16.206;2022-09-01T15:35:10;4.43;;;0.70;;
33810;SDS011;20119;48.334;16.206;2022-09-01T15:37:38;1.48;;;0.80;;
33810;SDS011;20119;48.334;16.206;2022-09-01T15:40:08;4.10;;;0.60;;
33810;SDS011;20119;48.334;16.206;2022-09-01T15:42:36;1.33;;;0.60;;
33810;SDS011;20119;48.334;16.206;2022-09-01T15:45:05;2.38;;;0.70;;
33810;SDS011;20119;48.334;16.206;2022-09-01T15:47:35;0.80;;;0.60;;
33810;SDS011;20119;48.334;16.206;2022-09-01T15:50:04;2.45;;;0.60;;
33810;SDS011;20119;48.334;16.206;2022-09-01T15:52:33;1.88;;;0.60;;
33810;SDS011;20119;48.334;16.206;2022-09-01T15:55:13;2.05;;;0.65;;
33810;SDS011;20119;48.334;16.206;2022-09-01T15:57:40;3.22;;;0.70;;
33810;SDS011;20119;48.334;16.206;2022-09-01T16:00:08;2.35;;;0.80;;
33810;SDS011;20119;48.334;16.206;2022-09-01T16:02:36;1.00;;;0.70;;
33810;SDS011;20119;48.334;16.206;2022-09-01T16:05:04;2.50;;;0.70;;
33810;SDS011;20119;48.334;16.206;2022-09-01T16:07:32;2.92;;;0.70;;
33810;SDS011;20119;48.334;16.206;2022-09-01T16:09:59;0.90;;;0.60;;
33810;SDS011;20119;48.334;16.206;2022-09-01T16:12:28;1.20;;;0.50;;
33810;SDS011;20119;48.334;16.206;2022-09-01T16:14:56;1.87;;;0.67;;
33810;SDS011;20119;48.334;16.206;2022-09-01T16:17:25;3.13;;;0.73;;
33810;SDS011;20119;48.334;16.206;2022-09-01T16:20:06;2.42;;;0.60;;
33810;SDS011;20119;48.334;16.206;2022-09-01T16:22:37;1.33;;;0.70;;
33810;SDS011;20119;48.334;16.206;2022-09-01T16:25:14;1.45;;;0.80;;
33810;SDS011;20119;48.334;16.206;2022-09-01T16:27:50;0.95;;;0.68;;
33810;SDS011;20119;48.334;16.206;2022-09-01T16:30:21;1.20;;;0.70;;
33810;SDS011;20119;48.334;16.206;2022-09-01T16:32:49;1.03;;;0.63;;
33810;SDS011;20119;48.334;16.206;2022-09-01T16:35:17;0.90;;;0.70;;
33810;SDS011;20119;48.334;16.206;2022-09-01T16:37:49;3.03;;;0.73;;
33810;SDS011;20119;48.334;16.206;2022-09-01T16:40:25;1.20;;;0.68;;
33810;SDS011;20119;48.334;16.206;2022-09-01T16:43:04;1.25;;;0.70;;
33810;SDS011;20119;48.334;16.206;2022-09-01T16:45:38;1.73;;;0.70;;
33810;SDS011;20119;48.334;16.206;2022-09-01T16:48:13;1.33;;;0.90;;
33810;SDS011;20119;48.334;16.206;2022-09-01T16:50:46;1.20;;;0.70;;
33810;SDS011;20119;48.334;16.206;2022-09-01T16:53:21;3.15;;;0.80;;
33810;SDS011;20119;48.334;16.206;2022-09-01T16:55:59;1.00;;;0.60;;
33810;SDS011;20119;48.334;16.206;2022-09-01T16:58:37;2.80;;;0.93;;
33810;SDS011;20119;48.334;16.206;2022-09-01T17:01:12;6.00;;;0.90;;
33810;SDS011;20119;48.334;16.206;2022-09-01T17:03:54;2.35;;;0.90;;
33810;SDS011;20119;48.334;16.206;2022-09-01T17:06:30;2.15;;;0.80;;
33810;SDS011;20119;48.334;16.206;2022-09-01T17:11:34;1.60;;;0.80;;
33810;SDS011;20119;48.334;16.206;2022-09-01T17:14:12;1.35;;;0.80;;
33810;SDS011;20119;48.334;16.206;2022-09-01T17:16:46;3.00;;;1.00;;
33810;SDS011;20119;48.334;16.206;2022-09-01T17:19:19;2.60;;;0.90;;
33810;SDS011;20119;48.334;16.206;2022-09-01T17:21:49;2.63;;;0.90;;
33810;SDS011;20119;48.334;16.206;2022-09-01T17:24:25;3.58;;;0.82;;
33810;SDS011;20119;48.334;16.206;2022-09-01T17:26:59;2.72;;;0.80;;
33810;SDS011;20119;48.334;16.206;2022-09-01T17:29:35;5.07;;;1.00;;
33810;SDS011;20119;48.334;16.206;2022-09-01T17:32:08;2.67;;;0.88;;
33810;SDS011;20119;48.334;16.206;2022-09-01T17:34:48;3.42;;;1.08;;
33810;SDS011;20119;48.334;16.206;2022-09-01T17:37:26;4.88;;;0.93;;
33810;SDS011;20119;48.334;16.206;2022-09-01T17:40:06;3.08;;;0.90;;
33810;SDS011;20119;48.334;16.206;2022-09-01T17:42:41;6.65;;;1.30;;
33810;SDS011;20119;48.334;16.206;2022-09-01T17:45:21;4.00;;;1.00;;
33810;SDS011;20119;48.334;16.206;2022-09-01T17:47:56;4.10;;;1.20;;
33810;SDS011;20119;48.334;16.206;2022-09-01T17:50:33;2.85;;;1.05;;
33810;SDS011;20119;48.334;16.206;2022-09-01T17:53:14;2.70;;;0.90;;
33810;SDS011;20119;48.334;16.206;2022-09-01T17:55:52;3.67;;;1.00;;
33810;SDS011;20119;48.334;16.206;2022-09-01T17:58:27;4.47;;;1.00;;
33810;SDS011;20119;48.334;16.206;2022-09-01T18:01:05;2.28;;;1.10;;
33810;SDS011;20119;48.334;16.206;2022-09-01T18:03:41;2.83;;;0.98;;
33810;SDS011;20119;48.334;16.206;2022-09-01T18:06:19;3.85;;;1.10;;
33810;SDS011;20119;48.334;16.206;2022-09-01T18:08:54;4.20;;;1.20;;
33810;SDS011;20119;48.334;16.206;2022-09-01T18:11:24;2.65;;;1.10;;
33810;SDS011;20119;48.334;16.206;2022-09-01T18:13:58;3.22;;;1.00;;
33810;SDS011;20119;48.334;16.206;2022-09-01T18:16:33;6.50;;;1.20;;
33810;SDS011;20119;48.334;16.206;2022-09-01T18:19:23;3.55;;;1.10;;
33810;SDS011;20119;48.334;16.206;2022-09-01T18:21:59;1.67;;;1.08;;
33810;SDS011;20119;48.334;16.206;2022-09-01T18:24:31;2.72;;;1.20;;
33810;SDS011;20119;48.334;16.206;2022-09-01T18:27:06;2.42;;;1.10;;
33810;SDS011;20119;48.334;16.206;2022-09-01T18:29:33;1.98;;;1.05;;
33810;SDS011;20119;48.334;16.206;2022-09-01T18:32:10;5.07;;;1.40;;
33810;SDS011;20119;48.334;16.206;2022-09-01T18:37:38;4.28;;;1.30;;
33810;SDS011;20119;48.334;16.206;2022-09-01T18:40:17;1.40;;;1.20;;
33810;SDS011;20119;48.334;16.206;2022-09-01T18:42:52;3.50;;;1.20;;
33810;SDS011;20119;48.334;16.206;2022-09-01T18:45:30;4.00;;;1.50;;
33810;SDS011;20119;48.334;16.206;2022-09-01T18:48:05;2.72;;;1.40;;
33810;SDS011;20119;48.334;16.206;2022-09-01T18:50:39;5.45;;;1.52;;
33810;SDS011;20119;48.334;16.206;2022-09-01T18:53:16;6.53;;;2.17;;
33810;SDS011;20119;48.334;16.206;2022-09-01T18:55:53;6.53;;;2.40;;
33810;SDS011;20119;48.334;16.206;2022-09-01T18:58:30;3.00;;;1.98;;
33810;SDS011;20119;48.334;16.206;2022-09-01T19:01:05;4.95;;;2.10;;
33810;SDS011;20119;48.334;16.206;2022-09-01T19:03:37;5.68;;;1.80;;
33810;SDS011;20119;48.334;16.206;2022-09-01T19:06:16;2.30;;;1.45;;
33810;SDS011;20119;48.334;16.206;2022-09-01T19:08:55;3.42;;;1.60;;
33810;SDS011;20119;48.334;16.206;2022-09-01T19:11:36;3.22;;;1.50;;
33810;SDS011;20119;48.334;16.206;2022-09-01T19:14:14;2.53;;;1.73;;
33810;SDS011;20119;48.334;16.206;2022-09-01T19:16:52;6.10;;;1.88;;
33810;SDS011;20119;48.334;16.206;2022-09-01T19:19:33;2.78;;;1.67;;
33810;SDS011;20119;48.334;16.206;2022-09-01T19:22:07;2.83;;;1.80;;
33810;SDS011;20119;48.334;16.206;2022-09-01T19:24:41;3.78;;;2.13;;
33810;SDS011;20119;48.334;16.206;2022-09-01T19:27:13;3.90;;;2.55;;
33810;SDS011;20119;48.334;16.206;2022-09-01T19:29:44;3.47;;;2.30;;
33810;SDS011;20119;48.334;16.206;2022-09-01T19:32:16;3.33;;;2.40;;
33810;SDS011;20119;48.334;16.206;2022-09-01T19:34:50;3.83;;;2.20;;
33810;SDS011;20119;48.334;16.206;2022-09-01T19:37:21;6.43;;;2.47;;
33810;SDS011;20119;48.334;16.206;2022-09-01T19:39:48;6.88;;;2.30;;
33810;SDS011;20119;48.334;16.206;2022-09-01T19:42:18;2.80;;;2.35;;
33810;SDS011;20119;48.334;16.206;2022-09-01T19:44:53;4.38;;;2.53;;
33810;SDS011;20119;48.334;16.206;2022-09-01T19:47:31;3.33;;;2.42;;